UAL546 TKPK-TNCM
Flight info
| Callsign | UAL546 |
|---|---|
| Flight time | 0h 26m |
| Altitude | 10000 |
| Route | SKB DCT ZPATA A517 PJM |
| Aircraft | A320/M-SDE3FGHIRWY/LB1 |
Departure
| Time | 2026-05-06 17:34 |
|---|---|
| Airport | Robert L. Bradshaw International Airport (TKPK) |
Arrival
| Time | 2026-05-06 18:00 |
|---|---|
| Airport | Princess Juliana International Airport (TNCM) |
| Time | Latitude | Longitude | Altitude | Speed | Heading |
|---|---|---|---|---|---|
| 2026-05-06 17:16 | 17.31038 | -62.71567 | 172 ft | 0 kts | 148° |
| 2026-05-06 17:25 | 17.31045 | -62.71571 | 172 ft | 0 kts | 148° |
| 2026-05-06 17:27 | 17.31046 | -62.71572 | 172 ft | 2 kts | 148° |
| 2026-05-06 17:27 | 17.31060 | -62.71581 | 172 ft | 2 kts | 148° |
| 2026-05-06 17:28 | 17.31074 | -62.71590 | 172 ft | 2 kts | 148° |
| 2026-05-06 17:28 | 17.31088 | -62.71599 | 172 ft | 2 kts | 148° |
| 2026-05-06 17:28 | 17.31102 | -62.71608 | 172 ft | 2 kts | 148° |
| 2026-05-06 17:28 | 17.31110 | -62.71613 | 172 ft | 0 kts | 148° |
| 2026-05-06 17:29 | 17.31097 | -62.71611 | 172 ft | 3 kts | 186° |
| 2026-05-06 17:30 | 17.31082 | -62.71631 | 172 ft | 5 kts | 231° |
| 2026-05-06 17:30 | 17.31049 | -62.71678 | 173 ft | 14 kts | 236° |
| 2026-05-06 17:30 | 17.30974 | -62.71796 | 173 ft | 22 kts | 236° |
| 2026-05-06 17:30 | 17.30883 | -62.71938 | 174 ft | 25 kts | 236° |
| 2026-05-06 17:31 | 17.30786 | -62.72095 | 175 ft | 27 kts | 237° |
| 2026-05-06 17:31 | 17.30715 | -62.72275 | 175 ft | 28 kts | 266° |
| 2026-05-06 17:31 | 17.30709 | -62.72487 | 176 ft | 30 kts | 256° |
| 2026-05-06 17:31 | 17.30591 | -62.72665 | 178 ft | 31 kts | 225° |
| 2026-05-06 17:32 | 17.30531 | -62.72759 | 178 ft | 4 kts | 311° |
| 2026-05-06 17:32 | 17.30554 | -62.72756 | 178 ft | 4 kts | 48° |
| 2026-05-06 17:32 | 17.30578 | -62.72727 | 178 ft | 7 kts | 51° |
| 2026-05-06 17:32 | 17.30607 | -62.72678 | 178 ft | 10 kts | 60° |
| 2026-05-06 17:33 | 17.30641 | -62.72617 | 177 ft | 0 kts | 60° |
| 2026-05-06 17:33 | 17.30697 | -62.72519 | 176 ft | 53 kts | 57° |
| 2026-05-06 17:33 | 17.31074 | -62.71945 | 175 ft | 135 kts | 57° |
| 2026-05-06 17:33 | 17.31678 | -62.71009 | 683 ft | 157 kts | 55° |
| 2026-05-06 17:34 | 17.32345 | -62.70084 | 1688 ft | 162 kts | 54° |
| 2026-05-06 17:34 | 17.33087 | -62.69196 | 2537 ft | 162 kts | 50° |
| 2026-05-06 17:34 | 17.33925 | -62.68403 | 3137 ft | 172 kts | 34° |
| 2026-05-06 17:34 | 17.35275 | -62.68090 | 2854 ft | 236 kts | 1° |
| 2026-05-06 17:35 | 17.37095 | -62.68728 | 2465 ft | 293 kts | 327° |
| 2026-05-06 17:35 | 17.38418 | -62.70237 | 3890 ft | 276 kts | 297° |
| 2026-05-06 17:35 | 17.39257 | -62.72009 | 4988 ft | 279 kts | 296° |
| 2026-05-06 17:36 | 17.41451 | -62.75634 | 6148 ft | 291 kts | 307° |
| 2026-05-06 17:36 | 17.42690 | -62.77288 | 6772 ft | 287 kts | 309° |
| 2026-05-06 17:36 | 17.43946 | -62.78917 | 7384 ft | 288 kts | 309° |
| 2026-05-06 17:36 | 17.45211 | -62.80553 | 8003 ft | 289 kts | 310° |
| 2026-05-06 17:37 | 17.46605 | -62.82078 | 8642 ft | 291 kts | 317° |
| 2026-05-06 17:37 | 17.48158 | -62.83449 | 9295 ft | 292 kts | 321° |
| 2026-05-06 17:37 | 17.49737 | -62.84802 | 9839 ft | 296 kts | 320° |
| 2026-05-06 17:37 | 17.51327 | -62.86172 | 9976 ft | 296 kts | 320° |
| 2026-05-06 17:38 | 17.52900 | -62.87529 | 10005 ft | 296 kts | 320° |
| 2026-05-06 17:38 | 17.54492 | -62.88906 | 9824 ft | 298 kts | 320° |
| 2026-05-06 17:38 | 17.56091 | -62.90288 | 9469 ft | 297 kts | 320° |
| 2026-05-06 17:38 | 17.57682 | -62.91660 | 9387 ft | 295 kts | 320° |
| 2026-05-06 17:39 | 17.59264 | -62.93021 | 8773 ft | 294 kts | 321° |
| 2026-05-06 17:39 | 17.60844 | -62.94380 | 8419 ft | 293 kts | 321° |
| 2026-05-06 17:39 | 17.62421 | -62.95737 | 8082 ft | 293 kts | 321° |
| 2026-05-06 17:39 | 17.63988 | -62.97089 | 7796 ft | 291 kts | 321° |
| 2026-05-06 17:40 | 17.65546 | -62.98434 | 7577 ft | 289 kts | 321° |
| 2026-05-06 17:40 | 17.67074 | -62.99751 | 7367 ft | 288 kts | 321° |
| 2026-05-06 17:40 | 17.68619 | -63.01082 | 7151 ft | 287 kts | 321° |
| 2026-05-06 17:40 | 17.70160 | -63.02414 | 6938 ft | 287 kts | 321° |
| 2026-05-06 17:41 | 17.71698 | -63.03746 | 6730 ft | 286 kts | 321° |
| 2026-05-06 17:41 | 17.73230 | -63.05073 | 6518 ft | 285 kts | 321° |
| 2026-05-06 17:41 | 17.74759 | -63.06396 | 6283 ft | 285 kts | 321° |
| 2026-05-06 17:41 | 17.76282 | -63.07713 | 6067 ft | 284 kts | 321° |
| 2026-05-06 17:42 | 17.77803 | -63.09030 | 5837 ft | 282 kts | 321° |
| 2026-05-06 17:42 | 17.79319 | -63.10343 | 5633 ft | 282 kts | 321° |
| 2026-05-06 17:42 | 17.80828 | -63.11648 | 5420 ft | 281 kts | 321° |
| 2026-05-06 17:42 | 17.82341 | -63.12955 | 5197 ft | 281 kts | 321° |
| 2026-05-06 17:43 | 17.83847 | -63.14255 | 4984 ft | 280 kts | 321° |
| 2026-05-06 17:43 | 17.85347 | -63.15552 | 4768 ft | 279 kts | 321° |
| 2026-05-06 17:43 | 17.86847 | -63.16847 | 4536 ft | 278 kts | 321° |
| 2026-05-06 17:43 | 17.88326 | -63.18125 | 4322 ft | 273 kts | 321° |
| 2026-05-06 17:44 | 17.89779 | -63.19384 | 4103 ft | 269 kts | 321° |
| 2026-05-06 17:44 | 17.91205 | -63.20620 | 3886 ft | 263 kts | 321° |
| 2026-05-06 17:44 | 17.92579 | -63.21813 | 3663 ft | 249 kts | 321° |
| 2026-05-06 17:44 | 17.93895 | -63.22958 | 3456 ft | 245 kts | 321° |
| 2026-05-06 17:45 | 17.95209 | -63.24098 | 3224 ft | 244 kts | 321° |
| 2026-05-06 17:45 | 17.96514 | -63.25227 | 3004 ft | 242 kts | 322° |
| 2026-05-06 17:45 | 17.97822 | -63.26300 | 2788 ft | 240 kts | 332° |
| 2026-05-06 17:45 | 17.99395 | -63.26724 | 2642 ft | 234 kts | 7° |
| 2026-05-06 17:46 | 18.00893 | -63.26223 | 2606 ft | 225 kts | 38° |
| 2026-05-06 17:46 | 18.01921 | -63.25031 | 2607 ft | 216 kts | 66° |
| 2026-05-06 17:46 | 18.02285 | -63.23564 | 2645 ft | 204 kts | 83° |
| 2026-05-06 17:46 | 18.02492 | -63.22103 | 2588 ft | 201 kts | 83° |
| 2026-05-06 17:47 | 18.02699 | -63.20650 | 2538 ft | 199 kts | 83° |
| 2026-05-06 17:47 | 18.02909 | -63.19212 | 2096 ft | 195 kts | 82° |
| 2026-05-06 17:47 | 18.03120 | -63.17852 | 1579 ft | 180 kts | 83° |
| 2026-05-06 17:47 | 18.03332 | -63.16615 | 1336 ft | 162 kts | 81° |
| 2026-05-06 17:48 | 18.03535 | -63.15499 | 928 ft | 149 kts | 82° |
| 2026-05-06 17:48 | 18.03653 | -63.14457 | 568 ft | 137 kts | 90° |
| 2026-05-06 17:48 | 18.03727 | -63.13473 | 208 ft | 136 kts | 83° |
| 2026-05-06 17:48 | 18.03859 | -63.12523 | 197 ft | 126 kts | 83° |
| 2026-05-06 17:49 | 18.03988 | -63.11621 | 51 ft | 126 kts | 79° |
| 2026-05-06 17:49 | 18.04141 | -63.10700 | 395 ft | 132 kts | 84° |
| 2026-05-06 17:49 | 18.04266 | -63.09757 | 1339 ft | 131 kts | 85° |
| 2026-05-06 17:49 | 18.04146 | -63.08680 | 1736 ft | 169 kts | 111° |
| 2026-05-06 17:50 | 18.03331 | -63.07534 | 2040 ft | 232 kts | 140° |
| 2026-05-06 17:50 | 18.01718 | -63.06719 | 2163 ft | 283 kts | 166° |
| 2026-05-06 17:50 | 17.99752 | -63.06729 | 2202 ft | 279 kts | 192° |
| 2026-05-06 17:50 | 17.98041 | -63.07578 | 2209 ft | 266 kts | 210° |
| 2026-05-06 17:51 | 17.96561 | -63.08619 | 2207 ft | 254 kts | 212° |
| 2026-05-06 17:51 | 17.95117 | -63.09674 | 2212 ft | 253 kts | 212° |
| 2026-05-06 17:51 | 17.93623 | -63.10627 | 2207 ft | 253 kts | 213° |
| 2026-05-06 17:51 | 17.92480 | -63.12031 | 2208 ft | 257 kts | 245° |
| 2026-05-06 17:52 | 17.92054 | -63.13863 | 2211 ft | 260 kts | 263° |
| 2026-05-06 17:52 | 17.91890 | -63.15752 | 2201 ft | 260 kts | 265° |
| 2026-05-06 17:52 | 17.91760 | -63.17649 | 2205 ft | 260 kts | 265° |
| 2026-05-06 17:52 | 17.91639 | -63.19541 | 2203 ft | 259 kts | 265° |
| 2026-05-06 17:53 | 17.91519 | -63.21430 | 2201 ft | 258 kts | 265° |
| 2026-05-06 17:53 | 17.91402 | -63.23306 | 2202 ft | 259 kts | 265° |
| 2026-05-06 17:53 | 17.91309 | -63.25191 | 2195 ft | 257 kts | 272° |
| 2026-05-06 17:53 | 17.91727 | -63.27016 | 2193 ft | 260 kts | 297° |
| 2026-05-06 17:54 | 17.92398 | -63.28051 | 2199 ft | 260 kts | 314° |
| 2026-05-06 17:54 | 17.93855 | -63.29103 | 2202 ft | 248 kts | 341° |
| 2026-05-06 17:54 | 17.95480 | -63.29407 | 2195 ft | 233 kts | 3° |
| 2026-05-06 17:54 | 17.97085 | -63.29419 | 2196 ft | 228 kts | 2° |
| 2026-05-06 17:55 | 17.99187 | -63.29445 | 2201 ft | 226 kts | 2° |
| 2026-05-06 17:55 | 18.00723 | -63.29472 | 2141 ft | 215 kts | 2° |
| 2026-05-06 17:55 | 18.01712 | -63.29469 | 2098 ft | 212 kts | 8° |
| 2026-05-06 17:55 | 18.03017 | -63.28919 | 2001 ft | 196 kts | 45° |
| 2026-05-06 17:56 | 18.03664 | -63.27751 | 2001 ft | 183 kts | 76° |
| 2026-05-06 17:56 | 18.03873 | -63.26441 | 2004 ft | 181 kts | 86° |
| 2026-05-06 17:56 | 18.03823 | -63.25124 | 2006 ft | 180 kts | 93° |
| 2026-05-06 17:56 | 18.03762 | -63.23842 | 1950 ft | 170 kts | 97° |
| 2026-05-06 17:57 | 18.03586 | -63.22608 | 2048 ft | 172 kts | 98° |
| 2026-05-06 17:57 | 18.03439 | -63.21368 | 2065 ft | 170 kts | 97° |
| 2026-05-06 17:57 | 18.03324 | -63.20120 | 2102 ft | 173 kts | 93° |
| 2026-05-06 17:57 | 18.03291 | -63.18883 | 2038 ft | 159 kts | 91° |
| 2026-05-06 17:58 | 18.03282 | -63.17773 | 1856 ft | 147 kts | 94° |
| 2026-05-06 17:58 | 18.03314 | -63.16728 | 1539 ft | 143 kts | 85° |
| 2026-05-06 17:58 | 18.03414 | -63.15704 | 1149 ft | 140 kts | 88° |
| 2026-05-06 17:58 | 18.03498 | -63.14695 | 719 ft | 138 kts | 83° |
| 2026-05-06 17:59 | 18.03707 | -63.13707 | 403 ft | 146 kts | 79° |
| 2026-05-06 17:59 | 18.03849 | -63.12684 | 261 ft | 135 kts | 84° |
| 2026-05-06 17:59 | 18.03965 | -63.11725 | 53 ft | 131 kts | 81° |
| 2026-05-06 17:59 | 18.04095 | -63.10864 | 21 ft | 101 kts | 83° |
| 2026-05-06 18:00 | 18.04158 | -63.10419 | 20 ft | 43 kts | 81° |
| 2026-05-06 18:00 | 18.04201 | -63.10133 | 20 ft | 37 kts | 81° |
| 2026-05-06 18:00 | 18.04247 | -63.09903 | 22 ft | 21 kts | 65° |
| 2026-05-06 18:00 | 18.04313 | -63.09860 | 21 ft | 0 kts | 69° |
| 2026-05-06 18:01 | 18.04304 | -63.09861 | 21 ft | 3 kts | 202° |
| 2026-05-06 18:01 | 18.04268 | -63.09889 | 20 ft | 8 kts | 216° |
| 2026-05-06 18:01 | 18.04229 | -63.09936 | 20 ft | 9 kts | 276° |
| 2026-05-06 18:01 | 18.04223 | -63.10009 | 19 ft | 12 kts | 256° |
| 2026-05-06 18:02 | 18.04196 | -63.10173 | 20 ft | 35 kts | 261° |
| 2026-05-06 18:02 | 18.04155 | -63.10458 | 23 ft | 41 kts | 261° |
| 2026-05-06 18:02 | 18.04110 | -63.10758 | 21 ft | 43 kts | 261° |
| 2026-05-06 18:02 | 18.04100 | -63.11008 | 25 ft | 15 kts | 305° |
| 2026-05-06 18:03 | 18.04157 | -63.11011 | 21 ft | 4 kts | 338° |
| 2026-05-06 18:03 | 18.04165 | -63.11051 | 21 ft | 7 kts | 267° |
| 2026-05-06 18:03 | 18.04161 | -63.11112 | 21 ft | 10 kts | 264° |
| 2026-05-06 18:03 | 18.04153 | -63.11193 | 21 ft | 13 kts | 264° |
| 2026-05-06 18:04 | 18.04146 | -63.11291 | 21 ft | 13 kts | 296° |
| 2026-05-06 18:04 | 18.04210 | -63.11307 | 21 ft | 11 kts | 352° |
| 2026-05-06 18:04 | 18.04284 | -63.11287 | 21 ft | 12 kts | 18° |
| 2026-05-06 18:04 | 18.04367 | -63.11297 | 22 ft | 0 kts | 352° |
| 2026-05-06 18:06 | 18.04359 | -63.11296 | 21 ft | 2 kts | 352° |
| 2026-05-06 18:06 | 18.04343 | -63.11294 | 21 ft | 2 kts | 352° |
| 2026-05-06 18:06 | 18.04340 | -63.11293 | 21 ft | 0 kts | 352° |